sensor_id;sensor_type;location;lat;lon;timestamp;pressure;altitude;pressure_sealevel;temperature;humidity
9110;BME280;4590;51.462;6.692;2022-07-05T00:00:52;101873.88;;;20.98;47.49
9110;BME280;4590;51.462;6.692;2022-07-05T00:03:17;101868.28;;;20.86;48.18
9110;BME280;4590;51.462;6.692;2022-07-05T00:05:42;101880.41;;;20.90;47.02
9110;BME280;4590;51.462;6.692;2022-07-05T00:08:08;101876.69;;;20.86;47.23
9110;BME280;4590;51.462;6.692;2022-07-05T00:10:34;101867.81;;;20.84;47.17
9110;BME280;4590;51.462;6.692;2022-07-05T00:13:00;101870.59;;;20.84;47.29
9110;BME280;4590;51.462;6.692;2022-07-05T00:15:26;101866.19;;;20.83;47.29
9110;BME280;4590;51.462;6.692;2022-07-05T00:17:51;101887.41;;;20.84;47.58
9110;BME280;4590;51.462;6.692;2022-07-05T00:20:17;101873.75;;;20.82;47.70
9110;BME280;4590;51.462;6.692;2022-07-05T00:22:42;101873.75;;;20.82;47.37
9110;BME280;4590;51.462;6.692;2022-07-05T00:25:07;101877.72;;;20.81;47.13
9110;BME280;4590;51.462;6.692;2022-07-05T00:27:33;101874.09;;;20.81;47.13
9110;BME280;4590;51.462;6.692;2022-07-05T00:29:58;101869.31;;;20.81;47.33
9110;BME280;4590;51.462;6.692;2022-07-05T00:32:23;101867.34;;;20.82;47.42
9110;BME280;4590;51.462;6.692;2022-07-05T00:34:49;101883.66;;;20.80;47.49
9110;BME280;4590;51.462;6.692;2022-07-05T00:37:14;101871.66;;;20.79;47.21
9110;BME280;4590;51.462;6.692;2022-07-05T00:39:39;101876.06;;;20.80;47.48
9110;BME280;4590;51.462;6.692;2022-07-05T00:42:05;101873.28;;;20.80;47.73
9110;BME280;4590;51.462;6.692;2022-07-05T00:44:34;101873.06;;;20.73;48.54
9110;BME280;4590;51.462;6.692;2022-07-05T00:47:01;101878.88;;;20.80;47.87
9110;BME280;4590;51.462;6.692;2022-07-05T00:49:27;101873.63;;;20.79;47.80
9110;BME280;4590;51.462;6.692;2022-07-05T00:51:53;101869.66;;;20.80;47.62
9110;BME280;4590;51.462;6.692;2022-07-05T00:54:18;101868.03;;;20.79;47.98
9110;BME280;4590;51.462;6.692;2022-07-05T00:56:44;101883.22;;;20.78;47.70
9110;BME280;4590;51.462;6.692;2022-07-05T00:59:09;101879.47;;;20.74;48.09
9110;BME280;4590;51.462;6.692;2022-07-05T01:01:34;101879.00;;;20.72;48.22
9110;BME280;4590;51.462;6.692;2022-07-05T01:03:59;101878.19;;;20.71;48.08
9110;BME280;4590;51.462;6.692;2022-07-05T01:06:25;101877.38;;;20.71;48.10
9110;BME280;4590;51.462;6.692;2022-07-05T01:08:50;101884.47;;;20.68;47.85
9110;BME280;4590;51.462;6.692;2022-07-05T01:11:16;101874.78;;;20.65;47.67
9110;BME280;4590;51.462;6.692;2022-07-05T01:13:41;101892.38;;;20.66;47.44
9110;BME280;4590;51.462;6.692;2022-07-05T01:16:07;101884.00;;;20.66;47.27
9110;BME280;4590;51.462;6.692;2022-07-05T01:18:33;101874.78;;;20.65;47.51
9110;BME280;4590;51.462;6.692;2022-07-05T01:20:59;101881.88;;;20.63;47.27
9110;BME280;4590;51.462;6.692;2022-07-05T01:23:26;101876.66;;;20.61;47.48
9110;BME280;4590;51.462;6.692;2022-07-05T01:25:53;101886.56;;;20.59;47.40
9110;BME280;4590;51.462;6.692;2022-07-05T01:28:19;101878.84;;;20.56;47.52
9110;BME280;4590;51.462;6.692;2022-07-05T01:30:45;101874.44;;;20.55;47.14
9110;BME280;4590;51.462;6.692;2022-07-05T01:33:11;101869.53;;;20.52;47.45
9110;BME280;4590;51.462;6.692;2022-07-05T01:35:36;101866.25;;;20.50;47.62
9110;BME280;4590;51.462;6.692;2022-07-05T01:38:02;101867.75;;;20.47;47.35
9110;BME280;4590;51.462;6.692;2022-07-05T01:40:28;101876.59;;;20.37;48.47
9110;BME280;4590;51.462;6.692;2022-07-05T01:42:53;101872.44;;;20.43;47.38
9110;BME280;4590;51.462;6.692;2022-07-05T01:45:19;101874.75;;;20.41;47.54
9110;BME280;4590;51.462;6.692;2022-07-05T01:48:08;101885.13;;;20.41;47.88
9110;BME280;4590;51.462;6.692;2022-07-05T01:50:39;101883.47;;;20.40;48.02
9110;BME280;4590;51.462;6.692;2022-07-05T01:53:10;101873.13;;;20.40;47.72
9110;BME280;4590;51.462;6.692;2022-07-05T01:55:36;101873.13;;;20.40;47.96
9110;BME280;4590;51.462;6.692;2022-07-05T01:58:01;101872.28;;;20.40;47.80
9110;BME280;4590;51.462;6.692;2022-07-05T02:00:27;101871.47;;;20.39;47.98
9110;BME280;4590;51.462;6.692;2022-07-05T02:02:52;101871.81;;;20.38;47.93
9110;BME280;4590;51.462;6.692;2022-07-05T02:05:19;101869.84;;;20.38;48.47
9110;BME280;4590;51.462;6.692;2022-07-05T02:07:50;101863.78;;;20.36;48.56
9110;BME280;4590;51.462;6.692;2022-07-05T02:10:16;101863.44;;;20.38;48.24
9110;BME280;4590;51.462;6.692;2022-07-05T02:12:42;101873.28;;;20.35;48.26
9110;BME280;4590;51.462;6.692;2022-07-05T02:15:07;101871.66;;;20.34;48.18
9110;BME280;4590;51.462;6.692;2022-07-05T02:17:33;101867.56;;;20.31;48.63
9110;BME280;4590;51.462;6.692;2022-07-05T02:19:58;101875.13;;;20.31;48.68
9110;BME280;4590;51.462;6.692;2022-07-05T02:22:24;101864.06;;;20.22;49.60
9110;BME280;4590;51.462;6.692;2022-07-05T02:24:50;101867.13;;;20.29;48.52
9110;BME280;4590;51.462;6.692;2022-07-05T02:27:15;101864.53;;;20.24;48.87
9110;BME280;4590;51.462;6.692;2022-07-05T02:29:41;101859.28;;;20.23;48.89
9110;BME280;4590;51.462;6.692;2022-07-05T02:32:06;101868.00;;;20.21;48.98
9110;BME280;4590;51.462;6.692;2022-07-05T02:34:31;101863.59;;;20.20;49.28
9110;BME280;4590;51.462;6.692;2022-07-05T02:36:57;101863.59;;;20.20;49.18
9110;BME280;4590;51.462;6.692;2022-07-05T02:39:22;101862.75;;;20.20;49.41
9110;BME280;4590;51.462;6.692;2022-07-05T02:41:47;101862.28;;;20.18;49.22
9110;BME280;4590;51.462;6.692;2022-07-05T02:44:12;101866.13;;;20.13;49.21
9110;BME280;4590;51.462;6.692;2022-07-05T02:46:38;101867.16;;;20.09;49.62
9110;BME280;4590;51.462;6.692;2022-07-05T02:49:04;101867.84;;;20.06;49.87
9110;BME280;4590;51.462;6.692;2022-07-05T02:51:29;101871.31;;;20.03;49.81
9110;BME280;4590;51.462;6.692;2022-07-05T02:53:54;101867.59;;;19.99;49.80
9110;BME280;4590;51.462;6.692;2022-07-05T02:56:20;101867.81;;;19.93;50.00
9110;BME280;4590;51.462;6.692;2022-07-05T02:58:45;101877.69;;;19.91;50.09
9110;BME280;4590;51.462;6.692;2022-07-05T03:01:10;101882.31;;;19.87;50.36
9110;BME280;4590;51.462;6.692;2022-07-05T03:03:35;101883.81;;;19.84;50.41
9110;BME280;4590;51.462;6.692;2022-07-05T03:06:01;101881.72;;;19.81;50.43
9110;BME280;4590;51.462;6.692;2022-07-05T03:08:26;101879.13;;;19.76;50.50
9110;BME280;4590;51.462;6.692;2022-07-05T03:10:51;101877.81;;;19.74;50.85
9110;BME280;4590;51.462;6.692;2022-07-05T03:13:17;101881.28;;;19.71;50.99
9110;BME280;4590;51.462;6.692;2022-07-05T03:15:42;101882.78;;;19.68;51.20
9110;BME280;4590;51.462;6.692;2022-07-05T03:18:08;101891.53;;;19.67;51.29
9110;BME280;4590;51.462;6.692;2022-07-05T03:20:33;101894.66;;;19.65;51.54
9110;BME280;4590;51.462;6.692;2022-07-05T03:22:58;101887.78;;;19.63;51.50
9110;BME280;4590;51.462;6.692;2022-07-05T03:25:23;101884.50;;;19.60;51.82
9110;BME280;4590;51.462;6.692;2022-07-05T03:27:49;101888.44;;;19.59;52.02
9110;BME280;4590;51.462;6.692;2022-07-05T03:30:14;101890.41;;;19.59;52.10
9110;BME280;4590;51.462;6.692;2022-07-05T03:32:39;101895.19;;;19.58;52.12
9110;BME280;4590;51.462;6.692;2022-07-05T03:35:05;101899.81;;;19.54;51.99
9110;BME280;4590;51.462;6.692;2022-07-05T03:37:30;101908.50;;;19.53;52.27
9110;BME280;4590;51.462;6.692;2022-07-05T03:39:55;101906.09;;;19.51;52.33
9110;BME280;4590;51.462;6.692;2022-07-05T03:42:21;101913.13;;;19.49;52.38
9110;BME280;4590;51.462;6.692;2022-07-05T03:44:46;101907.88;;;19.47;52.35
9110;BME280;4590;51.462;6.692;2022-07-05T03:47:13;101903.78;;;19.45;52.86
9110;BME280;4590;51.462;6.692;2022-07-05T03:49:38;101908.06;;;19.42;52.92
9110;BME280;4590;51.462;6.692;2022-07-05T03:52:04;101914.31;;;19.39;52.71
9110;BME280;4590;51.462;6.692;2022-07-05T03:54:29;101913.03;;;19.37;53.04
9110;BME280;4590;51.462;6.692;2022-07-05T03:56:54;101915.34;;;19.35;52.82
9110;BME280;4590;51.462;6.692;2022-07-05T03:59:19;101912.91;;;19.33;53.27
9110;BME280;4590;51.462;6.692;2022-07-05T04:01:45;101915.22;;;19.31;53.02
9110;BME280;4590;51.462;6.692;2022-07-05T04:04:10;101908.31;;;19.28;53.05
9110;BME280;4590;51.462;6.692;2022-07-05T04:06:35;101913.41;;;19.26;53.00
9110;BME280;4590;51.462;6.692;2022-07-05T04:09:00;101909.00;;;19.25;53.65
9110;BME280;4590;51.462;6.692;2022-07-05T04:11:26;101906.19;;;19.25;53.71
9110;BME280;4590;51.462;6.692;2022-07-05T04:13:51;101911.78;;;19.25;53.69
9110;BME280;4590;51.462;6.692;2022-07-05T04:16:16;101912.59;;;19.26;53.57
9110;BME280;4590;51.462;6.692;2022-07-05T04:18:41;101913.75;;;19.25;53.80
9110;BME280;4590;51.462;6.692;2022-07-05T04:21:07;101928.53;;;19.25;53.59
9110;BME280;4590;51.462;6.692;2022-07-05T04:23:32;101921.31;;;19.24;53.98
9110;BME280;4590;51.462;6.692;2022-07-05T04:25:58;101920.97;;;19.26;53.96
9110;BME280;4590;51.462;6.692;2022-07-05T04:28:24;101917.50;;;19.29;54.75
9110;BME280;4590;51.462;6.692;2022-07-05T04:30:50;101923.09;;;19.29;54.47
9110;BME280;4590;51.462;6.692;2022-07-05T04:33:15;101924.72;;;19.30;54.53
9110;BME280;4590;51.462;6.692;2022-07-05T04:35:40;101914.38;;;19.31;54.25
9110;BME280;4590;51.462;6.692;2022-07-05T04:38:06;101919.16;;;19.30;54.12
9110;BME280;4590;51.462;6.692;2022-07-05T04:40:31;101925.56;;;19.31;54.47
9110;BME280;4590;51.462;6.692;2022-07-05T04:42:56;101915.22;;;19.31;54.33
9110;BME280;4590;51.462;6.692;2022-07-05T04:45:22;101915.22;;;19.31;54.60
9110;BME280;4590;51.462;6.692;2022-07-05T04:47:47;101916.50;;;19.34;54.64
9110;BME280;4590;51.462;6.692;2022-07-05T04:50:12;101925.38;;;19.36;54.80
9110;BME280;4590;51.462;6.692;2022-07-05T04:52:38;101925.81;;;19.38;54.69
9110;BME280;4590;51.462;6.692;2022-07-05T04:55:03;101928.28;;;19.39;54.52
9110;BME280;4590;51.462;6.692;2022-07-05T04:57:39;101936.16;;;19.37;54.51
9110;BME280;4590;51.462;6.692;2022-07-05T05:00:06;101934.00;;;19.43;54.49
9110;BME280;4590;51.462;6.692;2022-07-05T05:02:31;101946.16;;;19.47;53.73
9110;BME280;4590;51.462;6.692;2022-07-05T05:04:56;101936.78;;;19.51;54.10
9110;BME280;4590;51.462;6.692;2022-07-05T05:07:22;101936.25;;;19.58;54.11
9110;BME280;4590;51.462;6.692;2022-07-05T05:09:47;101939.00;;;19.67;53.58
9110;BME280;4590;51.462;6.692;2022-07-05T05:12:12;101937.28;;;19.74;53.65
9110;BME280;4590;51.462;6.692;2022-07-05T05:14:37;101936.41;;;19.82;53.82
9110;BME280;4590;51.462;6.692;2022-07-05T05:17:03;101935.84;;;19.89;53.70
9110;BME280;4590;51.462;6.692;2022-07-05T05:19:28;101934.97;;;19.97;53.61
9110;BME280;4590;51.462;6.692;2022-07-05T05:21:54;101937.22;;;20.04;53.24
9110;BME280;4590;51.462;6.692;2022-07-05T05:24:19;101938.66;;;20.10;53.20
9110;BME280;4590;51.462;6.692;2022-07-05T05:26:44;101939.25;;;20.15;53.20
9110;BME280;4590;51.462;6.692;2022-07-05T05:29:09;101939.50;;;20.22;52.97
9110;BME280;4590;51.462;6.692;2022-07-05T05:31:35;101938.59;;;20.30;52.39
9110;BME280;4590;51.462;6.692;2022-07-05T05:34:00;101947.44;;;20.41;52.85
9110;BME280;4590;51.462;6.692;2022-07-05T05:36:25;101945.16;;;20.55;52.63
9110;BME280;4590;51.462;6.692;2022-07-05T05:38:50;101941.34;;;20.72;52.32
9110;BME280;4590;51.462;6.692;2022-07-05T05:41:16;101949.19;;;20.91;52.37
9110;BME280;4590;51.462;6.692;2022-07-05T05:43:41;101952.56;;;20.96;52.00
9110;BME280;4590;51.462;6.692;2022-07-05T05:46:06;101953.53;;;21.13;51.63
9110;BME280;4590;51.462;6.692;2022-07-05T05:48:31;101955.50;;;21.12;51.76
9110;BME280;4590;51.462;6.692;2022-07-05T05:50:57;101957.97;;;21.26;51.18
9110;BME280;4590;51.462;6.692;2022-07-05T05:53:22;101955.91;;;21.23;51.57
9110;BME280;4590;51.462;6.692;2022-07-05T05:55:47;101960.81;;;21.38;51.10
9110;BME280;4590;51.462;6.692;2022-07-05T05:58:16;101967.56;;;21.37;51.37
9110;BME280;4590;51.462;6.692;2022-07-05T06:00:42;101963.38;;;21.55;50.76
9110;BME280;4590;51.462;6.692;2022-07-05T06:03:09;101968.59;;;21.69;50.33
9110;BME280;4590;51.462;6.692;2022-07-05T06:05:34;101966.00;;;21.76;49.68
9110;BME280;4590;51.462;6.692;2022-07-05T06:07:59;101969.25;;;22.02;49.40
9110;BME280;4590;51.462;6.692;2022-07-05T06:10:25;101977.63;;;22.15;48.87
9110;BME280;4590;51.462;6.692;2022-07-05T06:12:53;101963.72;;;22.46;48.83
9110;BME280;4590;51.462;6.692;2022-07-05T06:15:19;101966.03;;;22.72;47.94
9110;BME280;4590;51.462;6.692;2022-07-05T06:17:44;101972.78;;;22.99;47.39
9110;BME280;4590;51.462;6.692;2022-07-05T06:20:11;101966.00;;;23.16;46.30
9110;BME280;4590;51.462;6.692;2022-07-05T06:22:36;101969.88;;;23.42;45.75
9110;BME280;4590;51.462;6.692;2022-07-05T06:25:02;101971.78;;;23.70;44.92
9110;BME280;4590;51.462;6.692;2022-07-05T06:27:27;101976.41;;;23.97;44.04
9110;BME280;4590;51.462;6.692;2022-07-05T06:29:53;101975.31;;;24.21;43.47
9110;BME280;4590;51.462;6.692;2022-07-05T06:32:18;101981.47;;;24.46;42.48
9110;BME280;4590;51.462;6.692;2022-07-05T06:34:43;101984.41;;;24.72;41.96
9110;BME280;4590;51.462;6.692;2022-07-05T06:37:08;101980.09;;;24.98;41.63
9110;BME280;4590;51.462;6.692;2022-07-05T06:39:33;101988.47;;;25.17;39.16
9110;BME280;4590;51.462;6.692;2022-07-05T06:41:59;101979.13;;;25.36;38.88
9110;BME280;4590;51.462;6.692;2022-07-05T06:44:24;101980.59;;;25.52;38.81
9110;BME280;4590;51.462;6.692;2022-07-05T06:46:49;101996.09;;;25.62;37.96
9110;BME280;4590;51.462;6.692;2022-07-05T06:49:14;101988.66;;;25.77;38.48
9110;BME280;4590;51.462;6.692;2022-07-05T06:51:39;101984.03;;;25.92;39.10
9110;BME280;4590;51.462;6.692;2022-07-05T06:54:05;101992.59;;;25.99;36.33
9110;BME280;4590;51.462;6.692;2022-07-05T06:56:30;101984.28;;;26.09;37.42
9110;BME280;4590;51.462;6.692;2022-07-05T06:58:55;101997.75;;;26.23;38.16
9110;BME280;4590;51.462;6.692;2022-07-05T07:01:20;101994.66;;;26.32;36.76
9110;BME280;4590;51.462;6.692;2022-07-05T07:03:45;101994.06;;;26.49;36.41
9110;BME280;4590;51.462;6.692;2022-07-05T07:06:12;102000.75;;;26.67;35.73
9110;BME280;4590;51.462;6.692;2022-07-05T07:08:37;101997.72;;;26.86;36.85
9110;BME280;4590;51.462;6.692;2022-07-05T07:11:21;101995.00;;;26.94;34.43
9110;BME280;4590;51.462;6.692;2022-07-05T07:13:46;101994.25;;;27.00;34.39
9110;BME280;4590;51.462;6.692;2022-07-05T07:16:12;101993.97;;;27.12;35.23
9110;BME280;4590;51.462;6.692;2022-07-05T07:18:37;102003.25;;;27.13;35.57
9110;BME280;4590;51.462;6.692;2022-07-05T07:21:02;101998.38;;;27.10;34.83
9110;BME280;4590;51.462;6.692;2022-07-05T07:23:27;101993.44;;;27.00;34.18
9110;BME280;4590;51.462;6.692;2022-07-05T07:25:53;101999.06;;;26.96;35.92
9110;BME280;4590;51.462;6.692;2022-07-05T07:28:18;101999.44;;;26.95;35.57
9110;BME280;4590;51.462;6.692;2022-07-05T07:30:43;102006.28;;;26.94;35.05
9110;BME280;4590;51.462;6.692;2022-07-05T07:33:08;102004.75;;;27.00;36.58
9110;BME280;4590;51.462;6.692;2022-07-05T07:35:33;102011.22;;;27.00;35.59
9110;BME280;4590;51.462;6.692;2022-07-05T07:37:59;102016.44;;;26.98;36.41
9110;BME280;4590;51.462;6.692;2022-07-05T07:40:24;102009.88;;;26.90;37.38
9110;BME280;4590;51.462;6.692;2022-07-05T07:42:49;102012.94;;;26.78;35.95
9110;BME280;4590;51.462;6.692;2022-07-05T07:45:14;102015.66;;;26.68;35.17
9110;BME280;4590;51.462;6.692;2022-07-05T07:47:39;102015.19;;;26.62;35.25
9110;BME280;4590;51.462;6.692;2022-07-05T07:50:05;102018.06;;;26.66;36.32
9110;BME280;4590;51.462;6.692;2022-07-05T07:52:31;102015.66;;;26.68;34.76
9110;BME280;4590;51.462;6.692;2022-07-05T07:54:58;102011.25;;;26.70;36.75
9110;BME280;4590;51.462;6.692;2022-07-05T07:57:23;102012.06;;;26.71;35.55
9110;BME280;4590;51.462;6.692;2022-07-05T07:59:48;102014.25;;;26.84;35.50
9110;BME280;4590;51.462;6.692;2022-07-05T08:02:13;102015.19;;;26.96;35.58
9110;BME280;4590;51.462;6.692;2022-07-05T08:04:39;102020.97;;;27.06;34.92
9110;BME280;4590;51.462;6.692;2022-07-05T08:07:04;102020.19;;;27.13;35.37
9110;BME280;4590;51.462;6.692;2022-07-05T08:09:29;102021.09;;;27.24;35.01
9110;BME280;4590;51.462;6.692;2022-07-05T08:11:55;102023.66;;;27.36;34.02
9110;BME280;4590;51.462;6.692;2022-07-05T08:14:21;102018.91;;;27.47;33.00
9110;BME280;4590;51.462;6.692;2022-07-05T08:16:47;102026.22;;;27.55;32.86
9110;BME280;4590;51.462;6.692;2022-07-05T08:19:12;102023.13;;;27.68;33.48
9110;BME280;4590;51.462;6.692;2022-07-05T08:21:56;102025.56;;;27.73;34.25
9110;BME280;4590;51.462;6.692;2022-07-05T08:24:21;102028.06;;;27.81;34.53
9110;BME280;4590;51.462;6.692;2022-07-05T08:26:46;102027.72;;;27.90;32.39
9110;BME280;4590;51.462;6.692;2022-07-05T08:29:12;102020.94;;;28.05;31.91
9110;BME280;4590;51.462;6.692;2022-07-05T08:31:42;102013.81;;;28.25;31.47
9110;BME280;4590;51.462;6.692;2022-07-05T08:34:07;102011.47;;;28.45;30.98
9110;BME280;4590;51.462;6.692;2022-07-05T08:36:33;102016.38;;;28.70;32.45
9110;BME280;4590;51.462;6.692;2022-07-05T08:38:58;102022.50;;;28.82;30.86
9110;BME280;4590;51.462;6.692;2022-07-05T08:41:23;102017.31;;;28.95;29.99
9110;BME280;4590;51.462;6.692;2022-07-05T08:43:49;102022.59;;;29.18;32.49
9110;BME280;4590;51.462;6.692;2022-07-05T08:46:15;102022.19;;;29.30;33.65
9110;BME280;4590;51.462;6.692;2022-07-05T08:48:41;102017.34;;;29.45;31.34
9110;BME280;4590;51.462;6.692;2022-07-05T08:51:09;102016.94;;;29.50;30.46
9110;BME280;4590;51.462;6.692;2022-07-05T08:53:35;102023.03;;;29.52;29.10
9110;BME280;4590;51.462;6.692;2022-07-05T08:56:01;102023.00;;;29.66;29.67
9110;BME280;4590;51.462;6.692;2022-07-05T08:58:26;102015.28;;;29.77;30.47
9110;BME280;4590;51.462;6.692;2022-07-05T09:00:51;102018.53;;;29.90;30.70
9110;BME280;4590;51.462;6.692;2022-07-05T09:03:17;102035.97;;;29.99;30.07
9110;BME280;4590;51.462;6.692;2022-07-05T09:05:45;102018.06;;;30.16;30.72
9110;BME280;4590;51.462;6.692;2022-07-05T09:08:13;102027.34;;;30.34;30.69
9110;BME280;4590;51.462;6.692;2022-07-05T09:10:39;102030.13;;;30.49;28.13
9110;BME280;4590;51.462;6.692;2022-07-05T09:13:05;102015.91;;;30.56;26.50
9110;BME280;4590;51.462;6.692;2022-07-05T09:15:30;102014.59;;;30.71;26.95
9110;BME280;4590;51.462;6.692;2022-07-05T09:17:55;102011.44;;;30.51;25.29
9110;BME280;4590;51.462;6.692;2022-07-05T09:20:21;102019.84;;;30.80;26.79
9110;BME280;4590;51.462;6.692;2022-07-05T09:22:53;102029.91;;;30.95;27.63
9110;BME280;4590;51.462;6.692;2022-07-05T09:27:51;102015.84;;;31.32;26.88
9110;BME280;4590;51.462;6.692;2022-07-05T09:30:23;102018.75;;;31.25;26.20
9110;BME280;4590;51.462;6.692;2022-07-05T09:32:54;102024.69;;;31.45;26.42
9110;BME280;4590;51.462;6.692;2022-07-05T09:35:24;102018.00;;;31.62;27.12
9110;BME280;4590;51.462;6.692;2022-07-05T09:37:49;102019.13;;;31.76;26.77
9110;BME280;4590;51.462;6.692;2022-07-05T09:40:14;102020.28;;;31.82;27.13
9110;BME280;4590;51.462;6.692;2022-07-05T09:42:39;102028.97;;;31.64;24.21
9110;BME280;4590;51.462;6.692;2022-07-05T09:45:04;102026.31;;;31.43;25.44
9110;BME280;4590;51.462;6.692;2022-07-05T09:47:30;102021.69;;;31.15;26.05
9110;BME280;4590;51.462;6.692;2022-07-05T09:49:56;102028.28;;;30.90;26.76
9110;BME280;4590;51.462;6.692;2022-07-05T09:52:26;102021.50;;;30.70;26.63
9110;BME280;4590;51.462;6.692;2022-07-05T09:57:39;102023.63;;;30.45;27.48
9110;BME280;4590;51.462;6.692;2022-07-05T10:00:12;102015.13;;;30.45;29.02
9110;BME280;4590;51.462;6.692;2022-07-05T10:02:41;102021.19;;;30.47;25.57
9110;BME280;4590;51.462;6.692;2022-07-05T10:05:16;102022.00;;;30.51;25.53
9110;BME280;4590;51.462;6.692;2022-07-05T10:07:42;102012.56;;;30.75;27.01
9110;BME280;4590;51.462;6.692;2022-07-05T10:10:10;102019.03;;;30.76;26.15
9110;BME280;4590;51.462;6.692;2022-07-05T10:12:36;102015.25;;;31.00;25.28
9110;BME280;4590;51.462;6.692;2022-07-05T10:15:02;102016.00;;;31.08;25.33
9110;BME280;4590;51.462;6.692;2022-07-05T10:17:27;102030.13;;;31.22;26.40
9110;BME280;4590;51.462;6.692;2022-07-05T10:19:53;102017.00;;;31.38;25.64
9110;BME280;4590;51.462;6.692;2022-07-05T10:22:19;102020.66;;;31.39;24.65
9110;BME280;4590;51.462;6.692;2022-07-05T10:24:44;102022.31;;;31.33;25.63
9110;BME280;4590;51.462;6.692;2022-07-05T10:27:09;102022.91;;;31.07;25.43
9110;BME280;4590;51.462;6.692;2022-07-05T10:29:36;102028.38;;;30.76;25.73
9110;BME280;4590;51.462;6.692;2022-07-05T10:32:01;102030.50;;;30.58;27.42
9110;BME280;4590;51.462;6.692;2022-07-05T10:34:26;102027.81;;;30.19;26.98
9110;BME280;4590;51.462;6.692;2022-07-05T10:36:52;102034.72;;;30.11;27.06
9110;BME280;4590;51.462;6.692;2022-07-05T10:39:17;102033.53;;;29.90;27.59
9110;BME280;4590;51.462;6.692;2022-07-05T10:41:42;102033.13;;;29.78;27.10
9110;BME280;4590;51.462;6.692;2022-07-05T10:44:08;102030.31;;;29.63;26.96
9110;BME280;4590;51.462;6.692;2022-07-05T10:46:37;102025.84;;;29.70;27.61
9110;BME280;4590;51.462;6.692;2022-07-05T10:49:10;102020.16;;;29.80;27.74
9110;BME280;4590;51.462;6.692;2022-07-05T10:51:35;102016.09;;;29.85;27.01
9110;BME280;4590;51.462;6.692;2022-07-05T10:54:01;102005.16;;;29.87;25.63
9110;BME280;4590;51.462;6.692;2022-07-05T10:56:27;101999.47;;;29.97;25.13
9110;BME280;4590;51.462;6.692;2022-07-05T10:59:03;102012.03;;;29.93;26.09
9110;BME280;4590;51.462;6.692;2022-07-05T11:01:32;102013.22;;;30.13;26.24
9110;BME280;4590;51.462;6.692;2022-07-05T11:11:32;102011.22;;;30.03;23.83
9110;BME280;4590;51.462;6.692;2022-07-05T11:13:58;102007.94;;;30.08;24.53
9110;BME280;4590;51.462;6.692;2022-07-05T11:19:14;102013.56;;;30.22;25.59
9110;BME280;4590;51.462;6.692;2022-07-05T11:22:07;102003.00;;;30.30;25.41
9110;BME280;4590;51.462;6.692;2022-07-05T11:24:33;102011.13;;;30.24;24.83
9110;BME280;4590;51.462;6.692;2022-07-05T11:26:59;102002.28;;;30.08;25.67
9110;BME280;4590;51.462;6.692;2022-07-05T11:34:37;101987.28;;;29.93;24.35
9110;BME280;4590;51.462;6.692;2022-07-05T11:42:56;101985.34;;;29.73;25.22
9110;BME280;4590;51.462;6.692;2022-07-05T11:45:21;101988.97;;;29.62;25.69
9110;BME280;4590;51.462;6.692;2022-07-05T11:47:46;101982.50;;;29.62;25.90
9110;BME280;4590;51.462;6.692;2022-07-05T11:50:12;101988.16;;;29.65;25.99
9110;BME280;4590;51.462;6.692;2022-07-05T11:52:38;101981.69;;;29.69;26.46
9110;BME280;4590;51.462;6.692;2022-07-05T11:55:04;101972.38;;;29.64;26.76
9110;BME280;4590;51.462;6.692;2022-07-05T11:57:30;101965.47;;;29.65;26.14
9110;BME280;4590;51.462;6.692;2022-07-05T11:59:55;101969.53;;;29.61;26.70
9110;BME280;4590;51.462;6.692;2022-07-05T12:02:20;101980.88;;;29.61;27.38
9110;BME280;4590;51.462;6.692;2022-07-05T12:04:53;101975.22;;;29.36;26.17
9110;BME280;4590;51.462;6.692;2022-07-05T12:09:51;101972.78;;;29.31;27.17
9110;BME280;4590;51.462;6.692;2022-07-05T12:12:34;101968.75;;;29.25;26.69
9110;BME280;4590;51.462;6.692;2022-07-05T12:15:10;101971.16;;;29.09;27.69
9110;BME280;4590;51.462;6.692;2022-07-05T12:17:39;101964.69;;;29.05;27.54
9110;BME280;4590;51.462;6.692;2022-07-05T12:20:05;101963.88;;;29.08;27.83
9110;BME280;4590;51.462;6.692;2022-07-05T12:22:35;101958.63;;;29.10;27.86
9110;BME280;4590;51.462;6.692;2022-07-05T12:25:00;101954.97;;;29.02;27.39
9110;BME280;4590;51.462;6.692;2022-07-05T12:27:27;101957.78;;;28.98;27.91
9110;BME280;4590;51.462;6.692;2022-07-05T12:29:54;101956.59;;;28.96;27.74
9110;BME280;4590;51.462;6.692;2022-07-05T12:32:19;101960.22;;;28.96;27.56
9110;BME280;4590;51.462;6.692;2022-07-05T12:34:44;101958.59;;;28.88;28.03
9110;BME280;4590;51.462;6.692;2022-07-05T12:37:09;101958.19;;;28.86;28.28
9110;BME280;4590;51.462;6.692;2022-07-05T12:39:34;101950.09;;;28.85;28.52
9110;BME280;4590;51.462;6.692;2022-07-05T12:42:00;101947.66;;;28.83;27.91
9110;BME280;4590;51.462;6.692;2022-07-05T12:44:25;101940.34;;;28.75;27.96
9110;BME280;4590;51.462;6.692;2022-07-05T12:46:50;101940.34;;;28.75;27.72
9110;BME280;4590;51.462;6.692;2022-07-05T12:49:16;101939.50;;;28.68;27.38
9110;BME280;4590;51.462;6.692;2022-07-05T12:51:42;101949.63;;;28.72;28.04
9110;BME280;4590;51.462;6.692;2022-07-05T12:54:08;101953.66;;;28.68;28.17
9110;BME280;4590;51.462;6.692;2022-07-05T12:57:01;101954.50;;;28.65;28.01
9110;BME280;4590;51.462;6.692;2022-07-05T12:59:58;101948.00;;;28.60;27.60
9110;BME280;4590;51.462;6.692;2022-07-05T13:02:33;101952.44;;;28.58;28.17
9110;BME280;4590;51.462;6.692;2022-07-05T13:04:59;101946.41;;;28.63;27.96
9110;BME280;4590;51.462;6.692;2022-07-05T13:07:24;101945.16;;;28.53;27.73
9110;BME280;4590;51.462;6.692;2022-07-05T13:09:50;101948.81;;;28.61;28.20
9110;BME280;4590;51.462;6.692;2022-07-05T13:12:17;101942.34;;;28.60;28.37
9110;BME280;4590;51.462;6.692;2022-07-05T13:14:53;101946.75;;;28.54;28.34
9110;BME280;4590;51.462;6.692;2022-07-05T13:17:19;101940.28;;;28.43;27.97
9110;BME280;4590;51.462;6.692;2022-07-05T13:19:46;101941.84;;;28.34;28.28
9110;BME280;4590;51.462;6.692;2022-07-05T13:22:11;101946.28;;;28.27;29.02
9110;BME280;4590;51.462;6.692;2022-07-05T13:24:37;101952.28;;;28.15;29.26
9110;BME280;4590;51.462;6.692;2022-07-05T13:27:02;101948.16;;;28.02;29.20
9110;BME280;4590;51.462;6.692;2022-07-05T13:29:28;101951.38;;;27.97;30.08
9110;BME280;4590;51.462;6.692;2022-07-05T13:31:53;101959.47;;;28.02;29.45
9110;BME280;4590;51.462;6.692;2022-07-05T13:34:18;101949.34;;;27.94;28.75